Meloi — 3FOD — position and weather

sailwx.info

Track history (hours):
 
Tides and Currents Weather Stations Pressure Air Temp Water Temp Dewpoint Dewpoint Depression Visibility Wind Speed Wind Dir Waves Ship Positions

Meloi

Last reported at 2018-Jan-22 13:31 UTC. Time now 2018-Jan-23 08:24 UTC.
Position N 34°30' W 025°20'.

Length 180 m; draft 8.3 m.

Type: Cargo ship. MMSI: 351132000.

Date/timePositionNaut miles runAvg speedWind from/ knotsBaromVisibWave heightAir tempDewpointWater temp
2018-Jan-22 13:31N 34°30' W 025°20'0 0.0
2018-Jan-22 13:31N 34°30' W 025°20'3913.2
2018-Jan-22 10:33N 34°34' W 024°33'2013.6
2018-Jan-22 09:03N 34°34' W 024°09'113.8
2018-Jan-22 08:56N 34°34' W 024°07'813.6
2018-Jan-22 08:23N 34°35' W 023°58'47513.3
2018-Jan-20 20:43N 35°20' W 014°21'313.3
2018-Jan-20 20:30N 35°20' W 014°17'713.2
2018-Jan-20 20:00N 35°21' W 014°09'713.0
2018-Jan-20 19:30N 35°22' W 014°01'713.0
2018-Jan-20 18:59N 35°22' W 013°53'713.1
2018-Jan-20 18:29N 35°23' W 013°45'613.0
2018-Jan-20 18:01N 35°24' W 013°38'713.1
2018-Jan-20 17:30N 35°24' W 013°29'713.0
2018-Jan-20 16:59N 35°25' W 013°21'613.1
2018-Jan-20 16:30N 35°26' W 013°14'713.0
2018-Jan-20 15:56N 35°26' W 013°04'813.1
2018-Jan-20 15:21N 35°27' W 012°55'513.0
2018-Jan-20 15:00N 35°27' W 012°50'612.9
2018-Jan-20 14:30N 35°28' W 012°42'712.8
2018-Jan-20 13:58N 35°28' W 012°33'712.9
2018-Jan-20 13:26N 35°29' W 012°25'612.9
2018-Jan-20 12:59N 35°30' W 012°18'612.6
2018-Jan-20 12:29N 35°30' W 012°10'1612.5
2018-Jan-20 11:13N 35°32' W 011°51'612.4
2018-Jan-20 10:42N 35°33' W 011°43'1012.7
2018-Jan-20 09:53N 35°33' W 011°30'612.5
2018-Jan-20 09:27N 35°34' W 011°24'712.4
2018-Jan-20 08:53N 35°35' W 011°15'512.6
2018-Jan-20 08:30N 35°35' W 011°09'4812.6
2018-Jan-20 04:39N 35°40' W 010°10'213.0
2018-Jan-20 04:30N 35°40' W 010°07'712.8
2018-Jan-20 03:59N 35°41' W 009°59'612.5
2018-Jan-20 03:30N 35°41' W 009°52'812.4
2018-Jan-20 02:52N 35°42' W 009°42'2112.3
2018-Jan-20 01:09N 35°44' W 009°17'17413.1
2018-Jan-19 11:50N 35°58' W 005°43'412.8
2018-Jan-19 11:30N 35°57' W 005°38'611.2
2018-Jan-19 10:59N 35°59' W 005°31'510.2
2018-Jan-19 10:31N 36°01' W 005°25'5 9.7
2018-Jan-19 10:00N 36°04' W 005°20'2 3.4
2018-Jan-19 09:31N 36°05' W 005°18'1 2.3
2018-Jan-19 09:00N 36°05' W 005°17'4 8.0
2018-Jan-19 08:30N 36°06' W 005°12'612.5
2018-Jan-19 08:01N 36°08' W 005°05'611.8
2018-Jan-19 07:30N 36°09' W 004°58'711.5
2018-Jan-19 06:56N 36°11' W 004°50'611.4
2018-Jan-19 06:23N 36°13' W 004°42'  
Track history (hours):
 
Tides and Currents Weather Stations Pressure Air Temp Water Temp Dewpoint Dewpoint Depression Visibility Wind Speed Wind Dir Waves Ship Positions

Meloi

Last reported at 2018-Jan-22 13:31 UTC. Time now 2018-Jan-23 08:24 UTC.
Position N 34°30' W 025°20'.

Length 180 m; draft 8.3 m.

Type: Cargo ship. MMSI: 351132000.

Date/timePositionNaut miles runAvg speedWind from/ knotsBaromVisibWave heightAir tempDewpointWater temp
2018-Jan-22 13:31N 34°30' W 025°20'0 0.0
2018-Jan-22 13:31N 34°30' W 025°20'3913.2
2018-Jan-22 10:33N 34°34' W 024°33'2013.6
2018-Jan-22 09:03N 34°34' W 024°09'113.8
2018-Jan-22 08:56N 34°34' W 024°07'813.6
2018-Jan-22 08:23N 34°35' W 023°58'47513.3
2018-Jan-20 20:43N 35°20' W 014°21'313.3
2018-Jan-20 20:30N 35°20' W 014°17'713.2
2018-Jan-20 20:00N 35°21' W 014°09'713.0
2018-Jan-20 19:30N 35°22' W 014°01'713.0
2018-Jan-20 18:59N 35°22' W 013°53'713.1
2018-Jan-20 18:29N 35°23' W 013°45'613.0
2018-Jan-20 18:01N 35°24' W 013°38'713.1
2018-Jan-20 17:30N 35°24' W 013°29'713.0
2018-Jan-20 16:59N 35°25' W 013°21'613.1
2018-Jan-20 16:30N 35°26' W 013°14'713.0
2018-Jan-20 15:56N 35°26' W 013°04'813.1
2018-Jan-20 15:21N 35°27' W 012°55'513.0
2018-Jan-20 15:00N 35°27' W 012°50'612.9
2018-Jan-20 14:30N 35°28' W 012°42'712.8
2018-Jan-20 13:58N 35°28' W 012°33'712.9
2018-Jan-20 13:26N 35°29' W 012°25'612.9
2018-Jan-20 12:59N 35°30' W 012°18'612.6
2018-Jan-20 12:29N 35°30' W 012°10'1612.5
2018-Jan-20 11:13N 35°32' W 011°51'612.4
2018-Jan-20 10:42N 35°33' W 011°43'1012.7
2018-Jan-20 09:53N 35°33' W 011°30'612.5
2018-Jan-20 09:27N 35°34' W 011°24'712.4
2018-Jan-20 08:53N 35°35' W 011°15'512.6
2018-Jan-20 08:30N 35°35' W 011°09'4812.6
2018-Jan-20 04:39N 35°40' W 010°10'213.0
2018-Jan-20 04:30N 35°40' W 010°07'712.8
2018-Jan-20 03:59N 35°41' W 009°59'612.5
2018-Jan-20 03:30N 35°41' W 009°52'812.4
2018-Jan-20 02:52N 35°42' W 009°42'2112.3
2018-Jan-20 01:09N 35°44' W 009°17'17413.1
2018-Jan-19 11:50N 35°58' W 005°43'412.8
2018-Jan-19 11:30N 35°57' W 005°38'611.2
2018-Jan-19 10:59N 35°59' W 005°31'510.2
2018-Jan-19 10:31N 36°01' W 005°25'5 9.7
2018-Jan-19 10:00N 36°04' W 005°20'2 3.4
2018-Jan-19 09:31N 36°05' W 005°18'1 2.3
2018-Jan-19 09:00N 36°05' W 005°17'4 8.0
2018-Jan-19 08:30N 36°06' W 005°12'612.5
2018-Jan-19 08:01N 36°08' W 005°05'611.8
2018-Jan-19 07:30N 36°09' W 004°58'711.5
2018-Jan-19 06:56N 36°11' W 004°50'611.4
2018-Jan-19 06:23N 36°13' W 004°42'  

Dump ship's entire track history